Time;durP1;ratioP1;P1;durP2;ratioP2;P2;SDS_P1;SDS_P2;PMS_P1;PMS_P2;Temp;Humidity;BMP_temperature;BMP_pressure;BME280_temperature;BME280_humidity;BME280_pressure;Samples;Min_cycle;Max_cycle;Signal;HPM_P1;HPM_P2
2020/12/11 00:02:06;;;;;;;4.80;4.40;;;3.60;99.90;;;;;;5028801;28;20224;-67
2020/12/11 00:04:33;;;;;;;5.03;4.63;;;3.60;99.90;;;;;;5031668;28;20626;-67
2020/12/11 00:07:00;;;;;;;4.80;4.50;;;3.50;99.90;;;;;;5036187;28;20199;-68
2020/12/11 00:09:28;;;;;;;4.93;4.63;;;3.50;99.90;;;;;;5041932;28;20223;-68
2020/12/11 00:11:55;;;;;;;5.00;4.50;;;3.50;99.90;;;;;;5031362;28;20196;-69
2020/12/11 00:14:22;;;;;;;5.30;4.90;;;3.50;99.90;;;;;;5036048;28;20223;-70
2020/12/11 00:16:48;;;;;;;4.90;4.60;;;3.50;99.90;;;;;;5037753;28;20229;-70
2020/12/11 00:19:15;;;;;;;5.28;4.97;;;3.50;99.90;;;;;;5032905;28;20192;-69
2020/12/11 00:21:42;;;;;;;4.72;4.32;;;3.50;99.90;;;;;;5035916;28;20663;-70
2020/12/11 00:24:11;;;;;;;4.97;4.68;;;3.50;99.90;;;;;;5027861;28;20223;-69
2020/12/11 00:26:37;;;;;;;4.90;4.60;;;3.50;99.90;;;;;;5035651;28;20203;-70
2020/12/11 00:29:05;;;;;;;5.07;4.68;;;3.50;99.90;;;;;;5032231;28;20231;-69
2020/12/11 00:31:32;;;;;;;4.55;4.25;;;3.40;99.90;;;;;;5037075;28;20227;-70
2020/12/11 00:33:59;;;;;;;5.50;4.40;;;3.40;99.90;;;;;;5034186;28;20235;-70
2020/12/11 00:36:26;;;;;;;4.63;4.32;;;3.50;99.90;;;;;;5028429;28;20200;-70
2020/12/11 00:38:52;;;;;;;4.28;3.97;;;3.50;99.90;;;;;;5035966;28;20227;-69
2020/12/11 00:41:20;;;;;;;4.80;4.50;;;3.50;99.90;;;;;;5038282;28;20616;-70
2020/12/11 00:43:47;;;;;;;4.63;4.32;;;3.50;99.90;;;;;;5037200;28;20227;-71
2020/12/11 00:46:13;;;;;;;4.65;4.35;;;3.60;99.90;;;;;;5032671;28;20203;-70
2020/12/11 00:48:40;;;;;;;4.93;4.50;;;3.60;99.90;;;;;;5031799;28;20234;-69
2020/12/11 00:51:07;;;;;;;4.15;3.95;;;3.60;99.90;;;;;;5038057;28;20830;-70
2020/12/11 00:53:33;;;;;;;4.25;3.95;;;3.60;99.90;;;;;;5031397;28;20223;-70
2020/12/11 00:56:00;;;;;;;4.45;4.15;;;3.60;99.90;;;;;;5034119;28;20211;-70
2020/12/11 00:58:27;;;;;;;4.63;4.32;;;3.60;99.90;;;;;;5029587;28;20231;-70
2020/12/11 01:00:54;;;;;;;4.60;4.30;;;3.60;99.90;;;;;;5037378;28;20203;-69
2020/12/11 01:03:20;;;;;;;4.70;4.40;;;3.50;99.90;;;;;;5035588;28;20227;-70
2020/12/11 01:05:47;;;;;;;4.07;3.78;;;3.50;99.90;;;;;;5034863;28;20200;-70
2020/12/11 01:08:13;;;;;;;4.00;3.80;;;3.50;99.90;;;;;;5034282;28;20239;-69
2020/12/11 01:10:40;;;;;;;4.82;4.50;;;3.50;99.90;;;;;;5031923;28;20199;-70
2020/12/11 01:13:06;;;;;;;4.32;4.03;;;3.50;99.90;;;;;;5054733;23;20227;-77
2020/12/11 01:15:34;;;;;;;4.40;4.10;;;3.50;99.90;;;;;;5040151;28;20675;-78
2020/12/11 01:18:00;;;;;;;4.05;3.78;;;3.50;99.90;;;;;;5039254;28;20368;-78
2020/12/11 01:20:27;;;;;;;4.00;3.80;;;3.50;99.90;;;;;;5039520;28;20212;-75
2020/12/11 01:22:53;;;;;;;4.15;3.85;;;3.50;99.90;;;;;;5032696;28;20218;-74
2020/12/11 01:25:20;;;;;;;4.30;4.00;;;3.50;99.90;;;;;;5021978;28;20656;-75
2020/12/11 01:27:46;;;;;;;4.75;4.45;;;3.50;99.90;;;;;;5020372;28;20220;-76
2020/12/11 01:30:13;;;;;;;4.00;3.80;;;3.50;99.90;;;;;;5034163;28;20280;-75
2020/12/11 01:32:40;;;;;;;3.83;3.63;;;3.50;99.90;;;;;;5026306;28;20706;-77
2020/12/11 01:35:07;;;;;;;3.85;3.65;;;3.50;99.90;;;;;;5017380;28;20195;-77
2020/12/11 01:37:34;;;;;;;4.20;4.00;;;3.50;99.90;;;;;;5027601;28;20227;-75
2020/12/11 01:40:00;;;;;;;3.88;3.67;;;3.60;99.90;;;;;;5030599;28;20253;-75
2020/12/11 01:42:27;;;;;;;4.18;3.88;;;3.60;99.90;;;;;;5025961;28;20231;-76
2020/12/11 01:44:54;;;;;;;4.25;4.03;;;3.60;99.90;;;;;;5032800;28;20219;-74
2020/12/11 01:47:22;;;;;;;4.22;3.92;;;3.50;99.90;;;;;;5019693;28;20211;-77
2020/12/11 01:49:52;;;;;;;4.43;4.13;;;3.50;99.90;;;;;;5022376;28;20212;-77
2020/12/11 01:52:19;;;;;;;5.05;4.65;;;3.50;99.90;;;;;;5025195;28;20192;-77
2020/12/11 01:54:47;;;;;;;3.78;3.58;;;3.50;99.90;;;;;;5023311;28;20215;-75
2020/12/11 01:57:21;;;;;;;4.00;3.80;;;3.50;99.90;;;;;;5028592;28;20204;-74
2020/12/11 01:59:51;;;;;;;4.18;3.97;;;3.50;99.90;;;;;;5022459;28;20645;-77
2020/12/11 02:02:20;;;;;;;3.80;3.60;;;3.40;99.90;;;;;;5028899;28;20199;-77
2020/12/11 02:04:48;;;;;;;4.10;3.90;;;3.40;99.90;;;;;;5023201;28;20220;-74
2020/12/11 02:07:15;;;;;;;4.07;3.88;;;3.40;99.90;;;;;;5026037;28;20231;-77
2020/12/11 02:09:43;;;;;;;4.63;4.32;;;3.40;99.90;;;;;;5018721;28;20228;-77
2020/12/11 02:12:09;;;;;;;4.05;3.85;;;3.40;99.90;;;;;;5026666;28;20670;-77
2020/12/11 02:14:36;;;;;;;4.07;3.78;;;3.40;99.90;;;;;;5028852;28;20230;-74
2020/12/11 02:17:04;;;;;;;4.80;4.40;;;3.40;99.90;;;;;;5029478;28;20192;-77
2020/12/11 02:19:33;;;;;;;3.72;3.50;;;3.40;99.90;;;;;;5029063;28;20752;-77
2020/12/11 02:22:01;;;;;;;4.57;4.28;;;3.40;99.90;;;;;;5024105;28;20218;-77
2020/12/11 02:24:28;;;;;;;4.45;4.15;;;3.40;99.90;;;;;;5025782;28;20270;-78
2020/12/11 02:26:55;;;;;;;4.00;3.60;;;3.40;99.90;;;;;;5022274;28;20196;-77
2020/12/11 02:29:22;;;;;;;3.60;3.40;;;3.40;99.90;;;;;;5022584;28;20227;-77
2020/12/11 02:31:49;;;;;;;4.00;3.80;;;3.40;99.90;;;;;;5032483;28;20203;-77
2020/12/11 02:34:15;;;;;;;4.18;3.90;;;3.40;99.90;;;;;;5025746;28;20697;-77
2020/12/11 02:36:42;;;;;;;4.57;4.28;;;3.40;99.90;;;;;;5025631;28;20567;-76
2020/12/11 02:39:09;;;;;;;3.80;3.60;;;3.40;99.90;;;;;;5024930;28;20219;-77
2020/12/11 02:41:36;;;;;;;4.70;4.40;;;3.40;99.90;;;;;;5032091;28;20654;-77
2020/12/11 02:44:02;;;;;;;4.80;4.50;;;3.40;99.90;;;;;;5022677;28;20228;-75
2020/12/11 02:46:29;;;;;;;4.18;3.97;;;3.40;99.90;;;;;;5015903;28;20204;-74
2020/12/11 02:48:56;;;;;;;4.63;4.32;;;3.50;99.90;;;;;;5019778;28;20223;-75
2020/12/11 02:51:22;;;;;;;4.50;4.20;;;3.40;99.90;;;;;;5037604;28;20206;-75
2020/12/11 02:53:50;;;;;;;4.55;4.25;;;3.40;99.90;;;;;;5026674;28;20708;-77
2020/12/11 02:56:19;;;;;;;4.32;3.95;;;3.40;99.90;;;;;;5027799;28;20191;-76
2020/12/11 02:58:46;;;;;;;4.53;4.25;;;3.40;99.90;;;;;;5020559;28;20212;-75
2020/12/11 03:01:13;;;;;;;4.40;4.10;;;3.40;99.90;;;;;;5031658;28;20211;-78
2020/12/11 03:03:39;;;;;;;4.32;4.03;;;3.30;99.90;;;;;;5028705;28;20270;-75
2020/12/11 03:06:06;;;;;;;4.13;3.90;;;3.30;99.90;;;;;;5025364;28;20262;-75
2020/12/11 03:08:33;;;;;;;4.47;4.18;;;3.30;99.90;;;;;;5027759;28;20637;-76
2020/12/11 03:11:00;;;;;;;4.55;4.25;;;3.30;99.90;;;;;;5029500;28;20570;-76
2020/12/11 03:13:27;;;;;;;4.50;4.20;;;3.30;99.90;;;;;;5030570;28;20714;-75
2020/12/11 03:15:54;;;;;;;4.30;3.90;;;3.30;99.90;;;;;;5024172;28;20204;-76
2020/12/11 03:18:20;;;;;;;4.53;4.20;;;3.30;99.90;;;;;;5030782;28;20232;-75
2020/12/11 03:20:47;;;;;;;3.67;3.47;;;3.20;99.90;;;;;;5026389;28;20603;-75
2020/12/11 03:23:13;;;;;;;5.97;4.30;;;3.20;99.90;;;;;;5023329;28;20237;-77
2020/12/11 03:25:40;;;;;;;4.22;3.95;;;3.20;99.90;;;;;;5022528;28;20710;-77
2020/12/11 03:28:06;;;;;;;4.68;4.38;;;3.10;99.90;;;;;;5033982;28;20336;-77
2020/12/11 03:30:34;;;;;;;4.97;4.65;;;3.10;99.90;;;;;;5029632;28;20223;-77
2020/12/11 03:33:00;;;;;;;4.43;4.13;;;3.20;99.90;;;;;;5022890;28;20227;-77
2020/12/11 03:35:27;;;;;;;4.70;4.40;;;3.20;99.90;;;;;;5024069;28;20199;-76
2020/12/11 03:37:54;;;;;;;4.18;3.97;;;3.20;99.90;;;;;;5020231;28;20255;-76
2020/12/11 03:40:20;;;;;;;4.60;4.30;;;3.20;99.90;;;;;;5027706;28;20484;-75
2020/12/11 03:42:47;;;;;;;4.53;4.22;;;3.20;99.90;;;;;;5026419;28;20288;-75
2020/12/11 03:45:13;;;;;;;4.20;4.00;;;3.20;99.90;;;;;;5018227;28;20211;-75
2020/12/11 03:47:41;;;;;;;4.53;4.22;;;3.20;99.90;;;;;;5018116;28;20196;-77
2020/12/11 03:50:08;;;;;;;4.05;3.83;;;3.20;99.90;;;;;;5029912;28;20693;-76
2020/12/11 03:52:34;;;;;;;3.67;3.47;;;3.30;99.90;;;;;;5019868;28;20204;-77
2020/12/11 03:55:01;;;;;;;4.30;4.10;;;3.20;99.90;;;;;;5027772;28;20697;-76
2020/12/11 03:57:27;;;;;;;4.22;4.03;;;3.30;99.90;;;;;;5025140;28;20205;-73
2020/12/11 03:59:54;;;;;;;4.18;3.92;;;3.20;99.90;;;;;;5019663;28;20253;-74
2020/12/11 04:02:20;;;;;;;4.60;4.30;;;3.10;99.90;;;;;;5025010;28;20201;-75
2020/12/11 04:04:48;;;;;;;4.35;4.05;;;3.10;99.90;;;;;;5019546;28;20270;-77
2020/12/11 04:07:15;;;;;;;4.40;4.10;;;3.00;99.90;;;;;;5032846;28;20670;-76
2020/12/11 04:09:41;;;;;;;4.55;4.25;;;3.00;99.90;;;;;;5018911;28;20225;-76
2020/12/11 04:12:08;;;;;;;4.22;4.03;;;3.00;99.90;;;;;;5023117;28;20203;-78
2020/12/11 04:14:34;;;;;;;4.32;4.03;;;3.10;99.90;;;;;;5027416;28;20250;-77
2020/12/11 04:17:01;;;;;;;4.20;3.90;;;3.10;99.90;;;;;;5026441;28;20198;-77
2020/12/11 04:19:27;;;;;;;4.07;3.88;;;3.20;99.90;;;;;;5031623;28;20794;-77
2020/12/11 04:21:55;;;;;;;4.15;3.95;;;3.20;99.90;;;;;;5027222;28;20202;-77
2020/12/11 04:24:23;;;;;;;4.00;3.80;;;3.20;99.90;;;;;;5024208;28;20652;-78
2020/12/11 04:26:49;;;;;;;4.82;4.53;;;3.30;99.90;;;;;;5027010;28;20200;-76
2020/12/11 04:29:16;;;;;;;4.40;4.10;;;3.30;99.90;;;;;;5027024;28;20218;-76
2020/12/11 04:31:43;;;;;;;4.45;4.15;;;3.20;99.90;;;;;;5026792;28;20208;-74
2020/12/11 04:34:09;;;;;;;4.35;4.05;;;3.10;99.90;;;;;;5022867;28;20231;-77
2020/12/11 04:36:36;;;;;;;5.10;4.60;;;3.00;99.90;;;;;;5024768;28;20197;-74
2020/12/11 04:39:03;;;;;;;4.47;4.18;;;2.90;99.90;;;;;;5031690;28;20219;-75
2020/12/11 04:41:31;;;;;;;4.40;4.10;;;3.00;99.90;;;;;;5031836;28;20203;-77
2020/12/11 04:43:58;;;;;;;4.32;4.10;;;2.90;99.90;;;;;;5023528;28;20234;-75
2020/12/11 04:46:28;;;;;;;3.90;3.70;;;2.90;99.90;;;;;;5029086;28;20191;-76
2020/12/11 04:48:55;;;;;;;4.25;3.95;;;3.00;99.90;;;;;;5017772;28;20219;-76
2020/12/11 04:51:24;;;;;;;4.18;3.97;;;3.00;99.90;;;;;;5020490;28;20287;-76
2020/12/11 04:53:53;;;;;;;4.05;3.85;;;3.00;99.90;;;;;;5021455;28;20652;-76
2020/12/11 04:56:22;;;;;;;4.03;3.80;;;3.00;99.90;;;;;;5029155;28;20730;-75
2020/12/11 04:58:51;;;;;;;4.05;3.85;;;3.00;99.90;;;;;;5026027;28;20299;-76
2020/12/11 05:01:28;;;;;;;4.18;3.97;;;3.00;99.90;;;;;;5021115;28;20267;-77
2020/12/11 05:03:56;;;;;;;4.40;4.10;;;3.00;99.90;;;;;;5021147;28;20228;-77
2020/12/11 05:06:23;;;;;;;5.05;4.65;;;2.90;99.90;;;;;;5033105;28;20203;-74
2020/12/11 05:09:08;;;;;;;5.32;4.93;;;2.90;99.90;;;;;;5022617;28;20223;-77
2020/12/11 05:11:35;;;;;;;5.47;5.07;;;2.90;99.90;;;;;;5031285;28;20196;-76
2020/12/11 05:14:02;;;;;;;4.63;4.32;;;2.80;99.90;;;;;;5027254;28;20945;-76
2020/12/11 05:16:28;;;;;;;4.80;4.50;;;2.80;99.90;;;;;;5025472;28;20621;-77
2020/12/11 05:19:04;;;;;;;4.72;4.32;;;2.80;99.90;;;;;;5027780;28;20277;-77
2020/12/11 05:21:32;;;;;;;4.32;4.03;;;2.80;99.90;;;;;;5031682;28;20282;-75
2020/12/11 05:24:00;;;;;;;4.45;4.15;;;2.80;99.90;;;;;;5027279;28;20593;-75
2020/12/11 05:26:29;;;;;;;4.22;3.83;;;2.80;99.90;;;;;;5031759;28;20200;-74
2020/12/11 05:28:56;;;;;;;4.22;3.90;;;2.80;99.90;;;;;;5027040;28;20215;-76
2020/12/11 05:31:23;;;;;;;4.40;4.05;;;2.90;99.90;;;;;;5025853;28;20199;-77
2020/12/11 05:34:04;;;;;;;4.05;3.85;;;2.80;99.90;;;;;;5024755;28;20230;-76
2020/12/11 05:36:46;;;;;;;4.30;4.10;;;2.70;99.90;;;;;;5028509;28;20190;-75
2020/12/11 05:39:13;;;;;;;3.83;3.63;;;2.80;99.90;;;;;;5027427;28;20366;-76
2020/12/11 05:41:40;;;;;;;4.10;3.90;;;2.80;99.90;;;;;;5022977;28;20196;-74
2020/12/11 05:44:25;;;;;;;4.28;3.97;;;2.80;99.90;;;;;;5027033;28;20230;-73
2020/12/11 05:46:52;;;;;;;3.83;3.63;;;2.90;99.90;;;;;;5024120;28;20208;-76
2020/12/11 05:49:27;;;;;;;3.83;3.63;;;2.90;99.90;;;;;;5024344;28;20223;-75
2020/12/11 05:52:00;;;;;;;4.00;3.80;;;2.90;99.90;;;;;;5027319;28;20625;-77
2020/12/11 05:54:27;;;;;;;3.72;3.53;;;3.00;99.90;;;;;;5023427;28;20224;-78
2020/12/11 05:56:53;;;;;;;3.78;3.58;;;3.00;99.90;;;;;;5024802;28;20677;-75
2020/12/11 05:59:21;;;;;;;4.90;4.60;;;3.00;99.90;;;;;;5028728;28;20595;-76
2020/12/11 06:01:50;;;;;;;6.10;5.60;;;3.00;99.90;;;;;;5022298;28;20287;-76
2020/12/11 06:04:18;;;;;;;6.72;6.13;;;3.00;99.90;;;;;;5023545;28;20314;-76
2020/12/11 06:06:46;;;;;;;5.32;4.93;;;3.00;99.90;;;;;;5029190;28;20220;-77
2020/12/11 06:09:15;;;;;;;5.05;4.70;;;3.00;99.90;;;;;;5023128;28;20219;-77
2020/12/11 06:11:48;;;;;;;5.25;4.85;;;3.00;99.90;;;;;;5027258;28;20303;-77
2020/12/11 06:14:28;;;;;;;5.25;4.88;;;2.90;99.90;;;;;;5022513;28;20844;-77
2020/12/11 06:16:58;;;;;;;4.57;4.28;;;2.90;99.90;;;;;;5020650;28;20195;-74
2020/12/11 06:19:25;;;;;;;4.70;4.35;;;2.90;99.90;;;;;;5024270;28;20215;-77
2020/12/11 06:21:52;;;;;;;4.65;4.25;;;2.90;99.90;;;;;;5025473;28;20710;-77
2020/12/11 06:24:29;;;;;;;5.10;4.80;;;2.90;99.90;;;;;;5026039;28;20277;-77
2020/12/11 06:26:59;;;;;;;4.15;3.95;;;3.00;99.90;;;;;;5026028;28;20226;-77
2020/12/11 06:29:27;;;;;;;4.72;4.43;;;3.00;99.90;;;;;;5020671;28;20627;-77
2020/12/11 06:31:55;;;;;;;4.80;4.50;;;3.00;99.90;;;;;;5023850;28;20230;-76
2020/12/11 06:34:23;;;;;;;4.35;4.05;;;3.00;99.90;;;;;;5024675;28;20358;-77
2020/12/11 06:36:49;;;;;;;4.90;4.60;;;2.90;99.90;;;;;;5029944;28;20199;-77
2020/12/11 06:39:44;;;;;;;4.63;4.32;;;2.80;99.90;;;;;;5032825;28;20211;-76
2020/12/11 06:42:44;;;;;;;5.60;5.20;;;2.90;99.90;;;;;;5025901;28;20605;-76
2020/12/11 06:45:24;;;;;;;4.85;4.55;;;2.80;99.90;;;;;;5022410;28;20220;-77
2020/12/11 06:47:54;;;;;;;4.78;4.47;;;2.80;99.90;;;;;;5022812;28;20258;-73
2020/12/11 06:50:23;;;;;;;5.10;4.80;;;2.80;99.90;;;;;;5021719;28;20232;-74
2020/12/11 06:52:50;;;;;;;5.15;4.75;;;2.90;99.90;;;;;;5031356;28;20682;-75
2020/12/11 06:55:16;;;;;;;6.07;5.65;;;2.90;99.90;;;;;;5032272;28;20215;-75
2020/12/11 06:57:50;;;;;;;6.63;6.13;;;2.90;99.90;;;;;;5035010;28;20273;-77
2020/12/11 07:00:36;;;;;;;6.03;5.63;;;2.80;99.90;;;;;;5033174;28;20218;-77
2020/12/11 07:03:26;;;;;;;6.05;5.57;;;2.80;99.90;;;;;;5020955;28;20215;-78
2020/12/11 07:06:08;;;;;;;5.25;4.85;;;2.80;99.90;;;;;;5029488;28;20199;-75
2020/12/11 07:08:35;;;;;;;6.10;5.70;;;2.80;99.90;;;;;;5027080;28;20227;-75
2020/12/11 07:11:19;;;;;;;5.60;5.30;;;2.70;99.90;;;;;;5027490;28;20209;-76
2020/12/11 07:13:50;;;;;;;5.25;4.85;;;2.80;99.90;;;;;;5067979;22;20219;-80
2020/12/11 07:16:17;;;;;;;5.85;5.35;;;2.80;99.90;;;;;;5022097;28;20206;-82
2020/12/11 07:18:44;;;;;;;5.78;5.38;;;2.80;99.90;;;;;;5021553;28;20224;-76
2020/12/11 07:21:12;;;;;;;5.80;5.40;;;2.80;99.90;;;;;;5023126;28;20203;-78
2020/12/11 07:23:39;;;;;;;4.85;4.55;;;2.90;99.90;;;;;;5034342;28;20245;-79
2020/12/11 07:26:05;;;;;;;6.15;5.70;;;2.90;99.90;;;;;;5020982;28;20207;-75
2020/12/11 07:28:33;;;;;;;5.40;5.00;;;2.80;99.90;;;;;;5015675;28;20223;-76
2020/12/11 07:31:00;;;;;;;5.03;4.63;;;2.70;99.90;;;;;;5025773;28;20596;-77
2020/12/11 07:33:34;;;;;;;5.32;4.93;;;2.70;99.90;;;;;;5023285;28;20849;-89
2020/12/11 07:36:03;;;;;;;5.18;4.88;;;2.80;99.90;;;;;;5025498;28;20640;-84
2020/12/11 07:38:33;;;;;;;4.90;4.60;;;2.80;99.90;;;;;;5024095;28;20226;-82
2020/12/11 07:41:03;;;;;;;5.90;5.40;;;2.90;99.90;;;;;;5024009;28;20219;-80
2020/12/11 07:43:30;;;;;;;5.30;5.00;;;2.90;99.90;;;;;;5024273;28;20226;-79
2020/12/11 07:45:57;;;;;;;5.72;5.22;;;3.00;99.90;;;;;;5017445;28;20188;-84
2020/12/11 07:48:23;;;;;;;5.43;4.93;;;2.90;99.90;;;;;;5029238;28;20284;-81
2020/12/11 07:50:50;;;;;;;6.30;5.80;;;2.90;99.90;;;;;;5023457;28;20219;-80
2020/12/11 07:53:17;;;;;;;4.85;4.55;;;2.90;99.90;;;;;;5021713;28;20216;-80
2020/12/11 07:55:44;;;;;;;5.38;4.97;;;3.00;99.90;;;;;;5021917;28;20199;-84
2020/12/11 07:58:11;;;;;;;4.97;4.68;;;3.00;99.90;;;;;;5023722;28;20215;-80
2020/12/11 08:00:38;;;;;;;4.80;4.50;;;3.00;99.90;;;;;;5023196;28;20200;-76
2020/12/11 08:03:07;;;;;;;5.00;4.70;;;3.00;99.90;;;;;;5033524;28;20227;-82
2020/12/11 08:05:38;;;;;;;4.90;4.60;;;3.00;99.90;;;;;;5022085;28;20273;-77
2020/12/11 08:08:05;;;;;;;5.13;4.72;;;3.00;99.90;;;;;;5025252;28;20280;-75
2020/12/11 08:10:42;;;;;;;5.47;5.03;;;2.90;99.90;;;;;;5019030;28;20219;-76
2020/12/11 08:13:13;;;;;;;5.22;4.82;;;2.90;99.90;;;;;;5019420;28;20220;-79
2020/12/11 08:15:41;;;;;;;4.63;4.32;;;2.90;99.90;;;;;;5026809;28;20706;-83
2020/12/11 08:18:12;;;;;;;4.93;4.63;;;3.00;99.90;;;;;;5019430;28;20203;-86
2020/12/11 08:20:49;;;;;;;4.47;4.18;;;3.10;99.90;;;;;;5017684;28;20290;-78
2020/12/11 08:23:23;;;;;;;4.88;4.57;;;3.10;99.90;;;;;;5024084;28;20258;-77
2020/12/11 08:26:11;;;;;;;4.95;4.65;;;3.10;99.90;;;;;;5018136;28;20223;-81
2020/12/11 08:28:39;;;;;;;4.35;4.05;;;3.10;99.90;;;;;;5023048;28;20208;-85
2020/12/11 08:31:17;;;;;;;4.78;4.47;;;3.10;99.90;;;;;;5019092;28;20231;-81
2020/12/11 08:33:44;;;;;;;4.65;4.32;;;3.10;99.90;;;;;;5013252;28;20223;-80
2020/12/11 08:36:22;;;;;;;5.10;4.70;;;3.10;99.90;;;;;;5012842;28;20246;-85
2020/12/11 08:39:24;;;;;;;4.43;4.13;;;3.20;99.90;;;;;;5020836;28;20621;-81
2020/12/11 08:42:08;;;;;;;6.13;5.63;;;3.30;99.90;;;;;;5020858;28;20716;-80
2020/12/11 08:44:58;;;;;;;7.28;6.57;;;3.40;99.90;;;;;;5022495;28;20331;-77
2020/12/11 08:47:37;;;;;;;6.93;6.32;;;3.30;99.90;;;;;;5020519;28;20216;-81
2020/12/11 08:50:09;;;;;;;6.93;6.32;;;3.40;99.90;;;;;;5021536;28;20223;-78
2020/12/11 08:52:36;;;;;;;6.75;6.15;;;3.50;99.90;;;;;;5020946;28;20223;-79
2020/12/11 08:55:02;;;;;;;7.30;6.65;;;3.50;99.90;;;;;;5019152;28;20215;-79
2020/12/11 08:57:32;;;;;;;7.93;6.70;;;3.50;99.90;;;;;;5021809;28;20222;-77
2020/12/11 08:59:59;;;;;;;6.90;6.30;;;3.60;99.90;;;;;;5021707;28;20291;-83
2020/12/11 09:02:26;;;;;;;7.03;6.43;;;3.60;99.90;;;;;;5026293;28;20223;-75
2020/12/11 09:04:52;;;;;;;6.45;5.85;;;3.60;99.90;;;;;;5017812;28;20368;-76
2020/12/11 09:07:19;;;;;;;9.02;8.23;;;3.60;99.90;;;;;;5033181;28;20325;-79
2020/12/11 09:09:46;;;;;;;8.48;7.68;;;3.50;99.90;;;;;;5019750;28;20226;-81
2020/12/11 09:12:12;;;;;;;7.75;7.03;;;3.50;99.90;;;;;;5023732;28;20218;-87
2020/12/11 09:14:40;;;;;;;8.43;7.70;;;3.50;99.90;;;;;;5030181;28;20222;-79
2020/12/11 09:17:06;;;;;;;8.98;8.18;;;3.60;99.90;;;;;;5025587;28;20709;-78
2020/12/11 09:19:33;;;;;;;8.32;7.50;;;3.60;99.90;;;;;;5028767;28;20681;-80
2020/12/11 09:22:01;;;;;;;7.60;7.00;;;3.60;99.90;;;;;;5027664;28;20234;-83
2020/12/11 09:24:28;;;;;;;6.45;5.93;;;3.60;99.90;;;;;;5028767;28;20354;-79
2020/12/11 09:26:56;;;;;;;5.90;5.50;;;3.60;99.90;;;;;;5018369;28;20215;-76
2020/12/11 09:29:28;;;;;;;5.75;5.32;;;3.60;99.90;;;;;;5030744;28;20581;-85
2020/12/11 09:31:57;;;;;;;5.63;5.22;;;3.50;99.90;;;;;;5030574;28;20284;-81
2020/12/11 09:34:24;;;;;;;4.85;4.45;;;3.50;99.90;;;;;;5030903;28;20222;-76
2020/12/11 09:36:51;;;;;;;5.30;4.90;;;3.50;99.90;;;;;;5023151;28;20219;-81
2020/12/11 09:39:17;;;;;;;5.10;4.70;;;3.50;99.90;;;;;;5024605;28;20661;-84
2020/12/11 09:41:50;;;;;;;5.45;4.97;;;3.50;99.90;;;;;;5026495;28;20227;-85
2020/12/11 09:47:27;;;;;;;5.30;4.90;;;3.60;99.90;;;;;;5022505;28;20226;-80
2020/12/11 09:50:04;;;;;;;5.65;5.15;;;3.60;99.90;;;;;;5013765;28;20306;-77
2020/12/11 09:52:41;;;;;;;5.50;5.10;;;3.70;99.90;;;;;;5019899;28;20244;-74
2020/12/11 09:55:10;;;;;;;5.07;4.68;;;3.80;99.90;;;;;;5026743;28;20286;-81
2020/12/11 09:57:36;;;;;;;5.43;5.03;;;3.90;99.90;;;;;;5024991;28;20227;-76
2020/12/11 10:00:05;;;;;;;4.65;4.35;;;3.80;99.90;;;;;;5020597;28;20192;-86
2020/12/11 10:02:44;;;;;;;5.40;4.95;;;3.80;99.90;;;;;;5023907;28;20231;-82
2020/12/11 10:05:11;;;;;;;4.38;4.07;;;3.80;99.90;;;;;;5024515;28;20219;-81
2020/12/11 10:07:37;;;;;;;4.78;4.43;;;3.70;99.90;;;;;;5024907;28;20239;-78
2020/12/11 10:10:04;;;;;;;4.70;4.40;;;3.70;99.90;;;;;;5024853;28;20232;-79
2020/12/11 10:12:31;;;;;;;4.80;4.50;;;3.70;99.90;;;;;;5020119;28;20219;-79
2020/12/11 10:15:00;;;;;;;4.82;4.50;;;3.70;99.90;;;;;;5024843;28;20308;-79
2020/12/11 10:17:27;;;;;;;4.55;4.25;;;3.80;99.90;;;;;;5020160;28;20786;-80
2020/12/11 10:19:54;;;;;;;4.95;4.65;;;3.80;99.90;;;;;;5018905;28;20207;-82
2020/12/11 10:22:21;;;;;;;4.32;4.10;;;3.80;99.90;;;;;;5024711;28;20289;-82
2020/12/11 10:24:47;;;;;;;4.53;4.20;;;3.90;99.90;;;;;;5026085;28;20220;-81
2020/12/11 10:27:14;;;;;;;4.20;3.90;;;3.90;99.90;;;;;;5024381;28;20706;-82
2020/12/11 10:29:41;;;;;;;4.35;4.05;;;3.90;99.90;;;;;;5028345;28;20227;-77
2020/12/11 10:32:07;;;;;;;4.82;4.43;;;4.00;99.90;;;;;;5032739;28;20226;-77
2020/12/11 10:34:35;;;;;;;4.60;4.30;;;4.00;99.90;;;;;;5026254;28;20230;-77
2020/12/11 10:37:06;;;;;;;5.15;4.75;;;4.00;99.90;;;;;;5020429;28;20241;-82
2020/12/11 10:39:33;;;;;;;5.90;5.40;;;4.00;99.90;;;;;;5034693;28;20233;-78
2020/12/11 10:42:02;;;;;;;5.32;4.95;;;4.10;99.90;;;;;;5027609;28;20219;-78
2020/12/11 10:44:28;;;;;;;5.45;5.03;;;4.10;99.90;;;;;;5014750;28;20216;-78
2020/12/11 10:46:55;;;;;;;5.05;4.65;;;4.10;99.90;;;;;;5011126;28;20220;-81
2020/12/11 10:49:22;;;;;;;4.50;4.20;;;4.10;99.90;;;;;;5013434;28;20942;-80
2020/12/11 10:51:48;;;;;;;4.95;4.57;;;4.10;99.90;;;;;;5026814;28;20312;-79
2020/12/11 10:54:18;;;;;;;4.90;4.50;;;4.10;99.90;;;;;;5018998;28;20216;-84
2020/12/11 10:56:45;;;;;;;5.60;5.20;;;4.10;99.90;;;;;;5014592;28;20230;-78
2020/12/11 10:59:12;;;;;;;5.38;4.97;;;4.10;99.90;;;;;;5018171;28;20228;-81
2020/12/11 11:01:39;;;;;;;4.75;4.43;;;4.00;99.90;;;;;;5022438;28;20211;-77
2020/12/11 11:04:07;;;;;;;4.95;4.65;;;4.10;99.90;;;;;;5026464;28;20254;-79
2020/12/11 11:06:36;;;;;;;4.90;4.55;;;4.10;99.90;;;;;;5019622;28;20239;-76
2020/12/11 11:09:17;;;;;;;5.38;4.88;;;4.10;99.90;;;;;;5021142;28;20658;-81
2020/12/11 11:11:49;;;;;;;4.70;4.40;;;4.10;99.90;;;;;;5026665;28;20285;-78
2020/12/11 11:14:34;;;;;;;5.15;4.75;;;4.10;99.90;;;;;;5017859;28;20220;-81
2020/12/11 11:19:52;;;;;;;5.32;4.93;;;4.00;99.90;;;;;;5022729;28;20215;-80
2020/12/11 11:22:30;;;;;;;5.43;5.07;;;4.00;99.90;;;;;;5021902;28;20215;-78
2020/12/11 11:27:50;;;;;;;4.97;4.57;;;4.00;99.90;;;;;;5001039;28;20405;-82
2020/12/11 11:30:18;;;;;;;4.90;4.50;;;3.90;99.90;;;;;;5010693;28;20223;-78
2020/12/11 11:32:44;;;;;;;4.90;4.50;;;3.90;99.90;;;;;;5012693;28;20219;-77
2020/12/11 11:35:11;;;;;;;4.80;4.40;;;3.80;99.90;;;;;;5018533;28;20200;-76
2020/12/11 11:37:38;;;;;;;4.90;4.60;;;3.80;99.90;;;;;;5013482;28;20231;-76
2020/12/11 11:40:04;;;;;;;4.50;4.20;;;3.70;99.90;;;;;;5013372;28;20201;-82
2020/12/11 11:42:31;;;;;;;4.60;4.28;;;3.70;99.90;;;;;;5016750;28;20223;-76
2020/12/11 11:45:00;;;;;;;5.35;4.85;;;3.80;99.90;;;;;;5023144;28;21899;-79
2020/12/11 11:47:28;;;;;;;5.20;4.80;;;3.80;99.90;;;;;;5015348;28;20226;-77
2020/12/11 11:50:06;;;;;;;5.13;4.72;;;3.80;99.90;;;;;;5020262;28;20298;-80
2020/12/11 11:52:35;;;;;;;6.20;5.70;;;3.90;99.90;;;;;;5009578;28;20223;-83
2020/12/11 11:55:02;;;;;;;5.25;4.85;;;3.90;99.90;;;;;;5015814;28;20333;-82
2020/12/11 11:57:28;;;;;;;5.35;4.95;;;3.90;99.90;;;;;;5024605;28;20216;-83
2020/12/11 11:59:57;;;;;;;5.07;4.78;;;3.90;99.90;;;;;;5020725;28;21319;-78
2020/12/11 12:02:27;;;;;;;4.55;4.15;;;3.80;99.90;;;;;;5020837;28;20215;-78
2020/12/11 12:04:55;;;;;;;4.88;4.53;;;3.80;99.90;;;;;;5018331;28;20709;-84
2020/12/11 12:07:25;;;;;;;4.15;3.85;;;3.80;99.90;;;;;;5023879;28;20226;-87
2020/12/11 12:09:54;;;;;;;4.80;4.50;;;3.70;99.90;;;;;;5021019;28;20211;-82
2020/12/11 12:12:22;;;;;;;4.13;3.83;;;3.70;99.90;;;;;;5016539;28;20215;-80
2020/12/11 12:14:51;;;;;;;4.13;3.90;;;3.70;99.90;;;;;;5018939;28;20227;-83
2020/12/11 12:17:22;;;;;;;4.20;3.90;;;3.80;99.90;;;;;;5023709;28;20222;-87
2020/12/11 12:19:54;;;;;;;3.92;3.72;;;3.70;99.90;;;;;;5023375;28;20202;-78
2020/12/11 12:28:30;;;;;;;3.80;3.60;;;3.90;99.90;;;;;;5023659;28;20272;-79
2020/12/11 12:30:56;;;;;;;4.28;4.00;;;3.90;99.90;;;;;;5023720;28;20314;-84
2020/12/11 12:39:08;;;;;;;4.72;4.43;;;3.90;99.90;;;;;;4995609;28;20257;-77
2020/12/11 12:44:19;;;;;;;4.80;4.50;;;4.00;99.90;;;;;;5024176;28;20257;-84
2020/12/11 12:46:46;;;;;;;5.38;4.88;;;4.00;99.90;;;;;;5033142;28;20670;-77
2020/12/11 12:49:13;;;;;;;4.80;4.50;;;4.00;99.90;;;;;;5028237;28;20247;-80
2020/12/11 12:51:41;;;;;;;4.65;4.30;;;4.10;99.90;;;;;;5028482;28;20688;-83
2020/12/11 12:54:08;;;;;;;4.78;4.43;;;4.10;99.90;;;;;;5027233;28;20226;-83
2020/12/11 12:56:41;;;;;;;4.60;4.30;;;4.10;99.90;;;;;;5025913;28;20703;-81
2020/12/11 12:59:12;;;;;;;4.55;4.15;;;4.00;99.90;;;;;;5025409;28;20311;-82
2020/12/11 13:01:51;;;;;;;4.32;4.03;;;4.00;99.90;;;;;;5024454;28;20211;-79
2020/12/11 13:04:23;;;;;;;3.88;3.67;;;4.10;99.90;;;;;;5020217;28;20269;-82
2020/12/11 13:06:50;;;;;;;4.05;3.85;;;4.10;99.90;;;;;;5019892;28;20195;-82
2020/12/11 13:09:18;;;;;;;4.78;4.47;;;4.10;99.90;;;;;;5025435;28;20230;-84
2020/12/11 13:11:49;;;;;;;5.35;4.95;;;4.20;99.90;;;;;;5020273;28;20944;-78
2020/12/11 13:14:15;;;;;;;4.80;4.50;;;4.20;99.90;;;;;;5018524;28;20281;-77
2020/12/11 13:16:42;;;;;;;5.35;4.95;;;4.20;99.90;;;;;;5020415;28;20218;-82
2020/12/11 13:19:11;;;;;;;4.72;4.40;;;4.20;99.90;;;;;;5017116;28;20616;-79
2020/12/11 13:21:42;;;;;;;5.13;4.63;;;4.10;99.90;;;;;;5025441;28;20203;-79
2020/12/11 13:26:55;;;;;;;5.55;5.05;;;4.00;99.90;;;;;;5029094;28;20214;-77
2020/12/11 13:29:22;;;;;;;5.75;5.13;;;3.90;99.90;;;;;;5020555;28;20729;-76
2020/12/11 13:31:48;;;;;;;5.03;4.63;;;3.90;99.90;;;;;;5026804;28;20211;-76
2020/12/11 13:36:50;;;;;;;5.55;5.15;;;3.90;99.90;;;;;;4997194;28;21130;-78